TABULAR FORECAST OF EN-ROUTE CONDITIONS LOW LEVEL MODEL TA1

DATE: NOVEMBER 24, 2014 HEIGHT IN FEET MSL

VALID FOR DEPARTURE BETWEEN: 10.00UTC AND 15.30UTC

AND ARRIVAL BETWEEN: 10.00UTC AND 15.30UTC

SPECIAL FEATURES OF THE METEOROLOGICAL SITUATION:

 ADVECTION OF RELATIVELY MOIST AIR AT LOW LEVEL

07° N                            4° N                            2° N

UPPER WINDS

(DEGREES TRUE AND KNOTS)

                              10000FT

                              5000FT

                              2000FT

TEMPERATURE

(DEGREES CELSIUS)

 

                       

                             100/15   PS 09

                             090/20   PS 17

                             080/20   PS 22

                           

 

CLOUDS

                                 600         

LOC SCT/BKN ST —— TL1130

                                 200

                           XXX                            8000

 ISOL TCU/CB ——    ISOL TCU/CB ——

                          1800                                        1800

VISIBILITY

IN FOG/MIST: 0800M-5000M

SIGNIFICANT WEATHER

  LOCAL MIST/FOG TL1200

FEW BRIEF SHOWERS

HEIGHT OF 0ºC ISOTHERM (ft)

+/- 16000

FORECAST LOWEST QNH (hPa)

1011

SUPPLEMENTARY INFORMATION

Issued at NMC on: 10.00UTC NOVEMBER 24, 2014 BY FORECASTER: T.S.WARSODIKRMO

 

Note:

1.   Positive and negative values are indicated by the prefix “PS” (plus) and “MS” (minus) respectively.

2.   When a single numerical value of an element is given in a forecast it is to be interpreted as representing

the most probable mean of a range of values which the element may assume during the period of the forecast.

 

ABBREVIATIONS: SKC – 0 oktas, FEW – 1 to 2 oktas, SCT – 3 to 4 oktas, BKN – 5 to 7 oktas, OVC – 8 oktas,

LYR – Layered, LOC – Locally, ISOL – Isolated, OCNL – Occasional, FRQ – Frequent, EMBD – Embedded.

 

 METAR SMJP 241030Z 09003KT 1500 BR BKN001 23/23 Q1011 BECMG AT1100 5000 BR=

METAR SMZO 241000Z 10002KT 9999 FEW015 24/23 Q1011 NOSIG=

METAR SMNI 241000Z 13005KT 9999 SCT015 25/23 Q1011=

METAR SMST 240900Z 00000KT 9999 FEW010 23/23 Q////=